• Join FlightAware (Why Join?)
  • Login
  • US Flag 
05:07AM EDT


 

Airport Tracker/Info


-or-


 

Live Flight TrackerFlight Track Log ✈ SCX8702 ✈ 10-Apr-2014 ✈ KIWA - KCID

Flight Track Log - Related Links

Times and Time Zones

All times are in EDT time to prevent confusion due to time zone crossing. See the SCX8702 flight status page for this flight to view local times or setup timezone preferences in your user account.

Time Position Orientation Groundspeed Altitude Reporting Facility
EDT Latitude Longitude Course Direction KTS MPH feet Rate Location/Type
03:30PM 33.3167 -111.6667 360° North 180 207 1,700  Level Phoenix TRACON
03:31PM 33.3667 -111.6667 360° North 228 262 3,400 1,980 Climbing Phoenix TRACON
03:32PM 33.3500 -111.6000 107° East 258 297 5,600 1,860 Climbing Phoenix TRACON
03:33PM 33.3667 -111.5000 79° East 294 338 7,200 1,980 Climbing Phoenix TRACON
03:35PM 33.4564 -111.4333 32° Northeast 302 348 10,400 2,160 Climbing Albuquerque Center
03:36PM 33.5447 -111.3869 24° Northeast 343 395 12,300 2,220 Climbing Albuquerque Center
03:37PM 33.6378 -111.3358 25° Northeast 365 420 15,100 1,860 Climbing Albuquerque Center
03:45PM 34.0795 -110.1559 67° East 502 578 30,400 1,740 Climbing FlightAware ADS-B (KBDG)
03:46PM 34.0696 -110.1260 64° Northeast  Level FlightAware Approximate
03:46PM 34.1258 -110.0223 68° East 501 577 31,900  Level FlightAware ADS-B (KBDG)
03:49PM 34.2420 -109.6845 68° East 492 566 34,800 840 Climbing FlightAware ADS-B (KBDG)
03:50PM 34.3196 -109.4848 56° Northeast 480 552 35,000 60 Climbing FlightAware ADS-B (KBDG)
03:52PM 34.4716 -109.2159 56° Northeast 478 550 35,000 120 Level FlightAware ADS-B (KBDG)
03:53PM 34.5546 -109.0680 56° Northeast 482 555 35,500 420 Climbing FlightAware ADS-B (KBDG)
03:54PM 34.6342 -108.9251 57° Northeast 486 559 36,000 120 Climbing FlightAware ADS-B (KBDG)
03:56PM 34.7820 -108.6544 56° Northeast 480 552 36,000 240 Level FlightAware ADS-B (KBDG)
03:57PM 34.8777 -108.4820 56° Northeast 478 550 37,000 420 Climbing FlightAware ADS-B (KBDG)
03:58PM 34.9535 -108.3438 56° Northeast 477 549 37,000  Level FlightAware ADS-B (KBDG)
03:59PM 35.0298 -108.2044 57° Northeast 478 550 37,000  Level FlightAware ADS-B (KBDG)
04:00PM 35.1049 -108.0663 57° Northeast 478 550 37,000  Level FlightAware ADS-B (KBDG)
04:01PM 35.1852 -107.9180 57° Northeast 480 552 37,000  Level FlightAware ADS-B (KBDG)
04:03PM 35.2632 -107.7732 57° Northeast 480 552 37,000  Level FlightAware ADS-B (KBDG)
04:04PM 35.3387 -107.6329 57° Northeast 480 552 37,000  Level FlightAware ADS-B (KBDG)
04:06PM 35.4870 -107.3551 57° Northeast 475 547 37,000  Level FlightAware ADS-B (KBDG)
04:07PM 35.5593 -107.2186 57° Northeast 477 549 37,000  Level FlightAware ADS-B (KBDG)
04:08PM 35.6282 -107.0888 57° Northeast 477 549 37,000  Level FlightAware ADS-B (KBDG)
04:10PM 35.8287 -106.7075 57° Northeast 479 551 37,000  Level FlightAware ADS-B (KBDG)
04:13PM 36.0069 -106.3640 58° Northeast 486 559 37,000  Level FlightAware ADS-B (KBDG)
04:14PM 36.0861 -106.2101 58° Northeast 485 558 37,000  Level FlightAware ADS-B (KBDG)
04:15PM 36.1575 -106.0711 58° Northeast 482 555 37,000  Level FlightAware ADS-B (KBDG)
04:16PM 36.2352 -105.9196 58° Northeast 484 557 37,000  Level FlightAware ADS-B (KBDG)
04:17PM 36.3104 -105.7718 58° Northeast 482 555 37,000  Level FlightAware ADS-B (KBDG)
04:18PM 36.3889 -105.6183 58° Northeast 483 556 37,000  Level Albuquerque Center
04:19PM 36.4572 -105.4822 58° Northeast 483 556 37,000  Level Albuquerque Center
04:19PM 36.4716 -105.4530 58° Northeast 485 558 37,000  Level FlightAware ADS-B (KBDG)
04:20PM 36.5286 -105.3408 58° Northeast 482 555 37,000  Level Albuquerque Center
04:21PM 36.6011 -105.1956 58° Northeast 484 557 37,000  Level Albuquerque Center
04:22PM 36.6731 -105.0514 58° Northeast 485 558 37,000  Level Albuquerque Center
04:24PM 36.7584 -104.9150 58° Northeast  Level FlightAware Approximate
04:24PM 36.8064 -104.7808 58° Northeast 486 559 37,000  Level Denver Center
04:25PM 36.9008 -104.5886 58° Northeast 488 562 37,000  Level Albuquerque Center
04:26PM 36.9783 -104.4311 58° Northeast 492 566 37,000  Level Albuquerque Center
04:28PM 37.0475 -104.2908 58° Northeast 492 566 37,000  Level Albuquerque Center
04:29PM 37.1269 -104.1272 59° Northeast 493 567 37,000  Level Albuquerque Center
04:30PM 37.1950 -103.9869 59° Northeast 493 567 37,000  Level Albuquerque Center
04:30PM 37.2503 -103.8686 60° Northeast 495 570 37,000  Level Denver Center
04:31PM 37.3283 -103.7053 59° Northeast 495 570 37,000  Level Denver Center
04:32PM 37.3956 -103.5661 59° Northeast 494 568 37,000  Level Denver Center
04:34PM 37.4728 -103.4017 59° Northeast 493 567 37,000  Level Denver Center
04:36PM 37.6278 -103.0717 59° Northeast 492 566 37,000  Level Albuquerque Center
04:37PM 37.6828 -102.9550 59° Northeast 489 563 37,000  Level Denver Center
04:39PM 37.8239 -102.6506 60° Northeast 484 557 37,000  Level Denver Center
04:45PM 38.3769 -101.9294 47° Northeast 486 559 37,000  Level FlightAware ADS-B
04:45PM 38.3869 -101.9153 63° Northeast 478 550 37,000  Level Denver Center
04:45PM 38.3976 -101.8949 59° Northeast 494 568 37,000  Level FlightAware ADS-B
04:47PM 38.5386 -101.5616 62° Northeast 492 566 37,000  Level FlightAware ADS-B
04:50PM 38.6750 -101.2154 63° Northeast  Level FlightAware Approximate
04:51PM 38.7558 -101.0361 63° Northeast 494 568 37,000  Level FlightAware ADS-B
04:52PM 38.8708 -100.7556 65° Northeast 491 565 37,000  Level Denver Center
04:53PM 38.8869 -100.7154 63° Northeast 497 572 37,000  Level FlightAware ADS-B
04:53PM 38.9357 -100.5951 63° Northeast 497 572 37,000  Level FlightAware ADS-B
04:54PM 39.0062 -100.4202 63° Northeast 498 573 37,000  Level FlightAware ADS-B
04:55PM 39.0106 -100.4081 63° Northeast 496 571 37,000  Level Denver Center
04:55PM 39.0473 -100.3177 63° Northeast 499 574 37,000  Level FlightAware ADS-B
04:57PM 39.1411 -100.0789 63° Northeast 498 573 37,000  Level Denver Center
04:58PM 39.1768 -99.9586 65° Northeast  Level FlightAware Approximate
04:58PM 39.2153 -99.8956 62° Northeast 498 573 37,000  Level Denver Center
05:03PM 39.5690 -98.9858 64° Northeast 501 577 37,000  Level FlightAware ADS-B
05:04PM 39.6013 -98.9016 64° Northeast 503 579 37,000  Level FlightAware ADS-B
05:05PM 39.6409 -98.7983 64° Northeast 503 579 37,000  Level FlightAware ADS-B
05:05PM 39.6820 -98.6905 64° Northeast 504 580 37,000  Level FlightAware ADS-B
05:06PM 39.7137 -98.6072 64° Northeast 505 581 37,000 -420 Level FlightAware ADS-B
05:06PM 39.7468 -98.5187 64° Northeast 504 580 36,600 -900 Descending FlightAware ADS-B
05:07PM 39.7782 -98.4342 64° Northeast 503 579 36,100 -1,020 Descending FlightAware ADS-B
05:07PM 39.8088 -98.3520 64° Northeast 497 572 35,600 -900 Descending FlightAware ADS-B
05:08PM 39.8391 -98.2715 64° Northeast 495 570 35,200 -600 Descending FlightAware ADS-B
05:08PM 39.8692 -98.1914 64° Northeast 491 565 35,000 -240 Descending FlightAware ADS-B
05:09PM 39.8996 -98.1103 64° Northeast 489 563 35,000  Level FlightAware ADS-B
05:09PM 39.9316 -98.0248 64° Northeast 488 562 35,000  Level FlightAware ADS-B
05:10PM 39.9611 -97.9452 64° Northeast 487 560 35,000  Level FlightAware ADS-B
05:10PM 39.9912 -97.8642 64° Northeast 485 558 35,000  Level FlightAware ADS-B
05:11PM 40.0204 -97.7849 64° Northeast 485 558 35,000  Level FlightAware ADS-B
05:11PM 40.0500 -97.7043 64° Northeast 488 562 35,000  Level FlightAware ADS-B
05:12PM 40.0819 -97.6172 64° Northeast 488 562 35,000  Level FlightAware ADS-B
05:12PM 40.1124 -97.5338 64° Northeast 488 562 35,000  Level FlightAware ADS-B
05:13PM 40.1417 -97.4534 65° Northeast 488 562 35,000  Level FlightAware ADS-B
05:14PM 40.1841 -97.3371 65° Northeast 489 563 35,000  Level FlightAware ADS-B
05:14PM 40.2135 -97.2557 65° Northeast 493 567 35,000  Level FlightAware ADS-B
05:15PM 40.2428 -97.1748 65° Northeast 495 570 35,000  Level FlightAware ADS-B
05:15PM 40.2728 -97.0908 65° Northeast 496 571 35,000  Level FlightAware ADS-B
05:16PM 40.3020 -97.0087 65° Northeast 497 572 35,000  Level FlightAware ADS-B
05:16PM 40.3312 -96.9271 65° Northeast 498 573 35,000  Level FlightAware ADS-B
05:17PM 40.3612 -96.8432 65° Northeast 499 574 35,000  Level FlightAware ADS-B
05:17PM 40.3903 -96.7615 65° Northeast 499 574 35,000  Level FlightAware ADS-B
05:18PM 40.4198 -96.6788 65° Northeast 499 574 35,000  Level FlightAware ADS-B
05:18PM 40.4495 -96.5957 65° Northeast 499 574 35,000  Level FlightAware ADS-B
05:19PM 40.4794 -96.5110 65° Northeast 498 573 35,000  Level FlightAware ADS-B
05:19PM 40.5091 -96.4261 65° Northeast 498 573 35,000  Level FlightAware ADS-B
05:20PM 40.5382 -96.3428 65° Northeast 499 574 35,000  Level FlightAware ADS-B
05:20PM 40.5673 -96.2593 65° Northeast 501 577 35,000  Level FlightAware ADS-B
05:21PM 40.5972 -96.1735 66° East 502 578 35,000  Level FlightAware ADS-B
05:21PM 40.6261 -96.0901 66° East 504 580 35,000  Level FlightAware ADS-B
05:22PM 40.6551 -96.0064 66° East 505 581 35,000  Level FlightAware ADS-B
05:22PM 40.6858 -95.9175 66° East 505 581 35,000  Level FlightAware ADS-B
05:23PM 40.7153 -95.8321 66° East 505 581 35,000  Level FlightAware ADS-B
05:23PM 40.7443 -95.7480 66° East 505 581 35,000  Level FlightAware ADS-B
05:24PM 40.7733 -95.6636 66° East 504 580 35,000  Level FlightAware ADS-B
05:24PM 40.8028 -95.5777 66° East 503 579 35,000  Level FlightAware ADS-B
05:25PM 40.8354 -95.4815 66° East 504 580 35,000  Level FlightAware ADS-B
05:25PM 40.8641 -95.3966 66° East 503 579 35,000  Level FlightAware ADS-B
05:26PM 40.8927 -95.3116 66° East 503 579 35,000  Level FlightAware ADS-B
05:26PM 40.9222 -95.2241 66° East 503 579 35,000  Level FlightAware ADS-B
05:27PM 40.9504 -95.1401 66° East 503 579 35,000  Level FlightAware ADS-B
05:27PM 40.9801 -95.0517 66° East 503 579 35,000  Level FlightAware ADS-B
05:28PM 41.0083 -94.9672 66° East 505 581 35,000  Level FlightAware ADS-B
05:29PM 41.0404 -94.8708 66° East 506 582 35,000  Level FlightAware ADS-B
05:29PM 41.0688 -94.7849 66° East 509 586 35,000  Level FlightAware ADS-B
05:30PM 41.0977 -94.6981 66° East 509 586 35,000  Level FlightAware ADS-B
05:30PM 41.1263 -94.6108 67° East 509 586 35,000 -120 Level FlightAware ADS-B
05:31PM 41.1548 -94.5246 66° East 511 588 34,900 -720 Descending FlightAware ADS-B
05:31PM 41.1835 -94.4365 67° East 503 579 34,300 -1,620 Descending FlightAware ADS-B
05:32PM 41.2111 -94.3518 67° East 495 570 33,300 -2,040 Descending FlightAware ADS-B
05:32PM 41.2385 -94.2684 67° East 488 562 32,300 -2,040 Descending FlightAware ADS-B
05:33PM 41.2652 -94.1859 67° East 483 556 31,300 -1,980 Descending FlightAware ADS-B
05:33PM 41.2921 -94.1022 67° East 476 548 30,300 -1,380 Descending FlightAware ADS-B
05:34PM 41.3182 -94.0212 67° East 467 537 29,900 -900 Descending FlightAware ADS-B
05:34PM 41.3446 -93.9394 67° East 471 542 29,400 -1,200 Descending FlightAware ADS-B
05:35PM 41.3713 -93.8559 67° East 468 539 28,700 -1,560 Descending FlightAware ADS-B
05:35PM 41.3972 -93.7751 67° East 461 531 27,800 -1,680 Descending FlightAware ADS-B
05:36PM 41.4269 -93.6817 67° East 460 529 26,700 -1,740 Descending Chicago Center
05:37PM 41.4675 -93.5244 71° East 455 524 24,800 -1,800 Descending Chicago Center
05:43PM 41.6857 -92.5936 73° East 361 415 13,300 -1,740 Descending FlightAware ADS-B (KCID)
05:45PM 41.7388 -92.3614 73° East 342 394 10,500 -1,440 Descending FlightAware ADS-B (KCID)
05:46PM 41.7521 -92.3028 73° East 324 373 10,100 -1,080 Descending FlightAware ADS-B (KCID)
05:46PM 41.7593 -92.2717 73° East 319 367 9,700 -1,140 Descending FlightAware ADS-B (KCID)
05:46PM 41.7657 -92.2443 73° East 313 360 9,500 -1,140 Descending FlightAware ADS-B (KCID)
05:47PM 41.7876 -92.1340 90° East 301 346 8,300 -1,200 Descending FlightAware ADS-B (KCID)
05:47PM 41.7866 -92.1059 94° East 299 344 8,000 -1,200 Descending FlightAware ADS-B (KCID)
05:48PM 41.7833 -92.0525 95° East 291 335 7,400 -1,380 Descending FlightAware ADS-B (KCID)
05:48PM 41.7817 -92.0268 94° East 294 338 7,000 -1,500 Descending FlightAware ADS-B (KCID)
05:49PM 41.7787 -91.9700 94° East 288 331 6,300 -960 Descending FlightAware ADS-B (KCID)
05:49PM 41.7763 -91.9197 94° East 273 314 6,100 -240 Descending FlightAware ADS-B (KCID)
05:50PM 41.7738 -91.8686 94° East 272 313 6,100  Level FlightAware ADS-B (KCID)
05:50PM 41.7725 -91.8430 94° East 271 312 6,100 -180 Level FlightAware ADS-B (KCID)
05:50PM 41.7701 -91.7970 93° East 253 291 6,000  Descending FlightAware ADS-B (KCID)
05:51PM 41.7691 -91.7717 93° East 250 288 6,100  Climbing FlightAware ADS-B (KCID)
05:51PM 41.7667 -91.7290 94° East 222 255 6,000  Descending FlightAware ADS-B (KCID)
05:51PM 41.7656 -91.7081 95° East 212 244 6,100  Climbing FlightAware ADS-B (KCID)
05:52PM 41.7632 -91.6725 95° East 201 231 6,000 -180 Descending FlightAware ADS-B (KCID)
05:52PM 41.7618 -91.6511 95° East 200 230 6,000 -240 Level FlightAware ADS-B (KCID)
05:52PM 41.7606 -91.6335 95° East 195 224 5,900 -1,020 Descending FlightAware ADS-B (KCID)
05:53PM 41.7595 -91.6150 95° East 202 232 5,500 -1,440 Descending FlightAware ADS-B (KCID)
05:53PM 41.7583 -91.5959 94° East 202 232 5,200 -1,320 Descending FlightAware ADS-B (KCID)
05:53PM 41.7575 -91.5636 71° East 195 224 4,600 -1,260 Descending FlightAware ADS-B (KCID)
05:54PM 41.7642 -91.5485 37° Northeast 182 209 4,300 -720 Descending FlightAware ADS-B (KCID)
05:56PM 41.8674 -91.5534 338° Northwest 161 185 2,800 -600 Descending FlightAware ADS-B (KCID)
05:56PM 41.8761 -91.5615 311° West 156 180 2,800 -240 Level FlightAware ADS-B (KCID)
05:56PM 41.8821 -91.5746 285° West 162 186 2,700 -600 Descending FlightAware ADS-B (KCID)
05:57PM 41.8836 -91.5903 271° West 163 188 2,500 -840 Descending FlightAware ADS-B (KCID)
05:57PM 41.8836 -91.6199 270° West 157 181 2,100 -840 Descending FlightAware ADS-B (KCID)
05:57PM 41.8837 -91.6331 269° West 147 169 1,900 -840 Descending FlightAware ADS-B (KCID)
05:58PM 41.8837 -91.6477 271° West 148 170 1,700 -780 Descending FlightAware ADS-B (KCID)
05:58PM 41.8839 -91.6619 272° West 149 171 1,500  Descending FlightAware ADS-B (KCID)
05:59PM 41.8819 -91.6939 272° West 164 189 1,700 300 Climbing Chicago Center